sensor_id;sensor_type;location;lat;lon;timestamp;P1;durP1;ratioP1;P2;durP2;ratioP2
74974;SDS011;64061;50.836;19.138;2022-11-18T00:02:28;1.15;;;0.40;;
74974;SDS011;64061;50.836;19.138;2022-11-18T00:05:33;1.30;;;0.65;;
74974;SDS011;64061;50.836;19.138;2022-11-18T00:08:37;1.73;;;0.93;;
74974;SDS011;64061;50.836;19.138;2022-11-18T00:11:40;1.92;;;0.75;;
74974;SDS011;64061;50.836;19.138;2022-11-18T00:15:02;1.08;;;0.47;;
74974;SDS011;64061;50.836;19.138;2022-11-18T00:18:06;1.15;;;0.40;;
74974;SDS011;64061;50.836;19.138;2022-11-18T00:21:12;0.80;;;0.40;;
74974;SDS011;64061;50.836;19.138;2022-11-18T00:24:15;1.87;;;0.87;;
74974;SDS011;64061;50.836;19.138;2022-11-18T00:27:20;1.42;;;0.63;;
74974;SDS011;64061;50.836;19.138;2022-11-18T00:30:23;1.35;;;0.32;;
74974;SDS011;64061;50.836;19.138;2022-11-18T00:33:27;1.38;;;0.70;;
74974;SDS011;64061;50.836;19.138;2022-11-18T00:36:32;1.27;;;0.60;;
74974;SDS011;64061;50.836;19.138;2022-11-18T00:39:36;0.97;;;0.37;;
74974;SDS011;64061;50.836;19.138;2022-11-18T00:42:39;1.73;;;0.90;;
74974;SDS011;64061;50.836;19.138;2022-11-18T00:45:57;1.10;;;0.38;;
74974;SDS011;64061;50.836;19.138;2022-11-18T00:49:00;1.92;;;0.70;;
74974;SDS011;64061;50.836;19.138;2022-11-18T00:52:06;0.68;;;0.40;;
74974;SDS011;64061;50.836;19.138;2022-11-18T00:55:09;1.67;;;0.33;;
74974;SDS011;64061;50.836;19.138;2022-11-18T00:58:13;2.50;;;0.73;;
74974;SDS011;64061;50.836;19.138;2022-11-18T01:01:16;1.10;;;0.75;;
74974;SDS011;64061;50.836;19.138;2022-11-18T01:04:20;1.00;;;0.45;;
74974;SDS011;64061;50.836;19.138;2022-11-18T01:07:25;1.15;;;0.47;;
74974;SDS011;64061;50.836;19.138;2022-11-18T01:10:29;1.53;;;0.70;;
74974;SDS011;64061;50.836;19.138;2022-11-18T01:13:33;1.35;;;0.60;;
74974;SDS011;64061;50.836;19.138;2022-11-18T01:16:35;1.67;;;0.75;;
74974;SDS011;64061;50.836;19.138;2022-11-18T01:19:39;1.35;;;0.70;;
74974;SDS011;64061;50.836;19.138;2022-11-18T01:22:44;1.98;;;0.60;;
74974;SDS011;64061;50.836;19.138;2022-11-18T01:25:48;1.03;;;0.50;;
74974;SDS011;64061;50.836;19.138;2022-11-18T01:28:53;1.48;;;0.57;;
74974;SDS011;64061;50.836;19.138;2022-11-18T01:31:58;0.70;;;0.30;;
74974;SDS011;64061;50.836;19.138;2022-11-18T01:35:22;0.85;;;0.32;;
74974;SDS011;64061;50.836;19.138;2022-11-18T01:38:28;5.18;;;0.70;;
74974;SDS011;64061;50.836;19.138;2022-11-18T01:41:32;0.77;;;0.30;;
74974;SDS011;64061;50.836;19.138;2022-11-18T01:48:11;0.93;;;0.45;;
74974;SDS011;64061;50.836;19.138;2022-11-18T01:51:22;1.13;;;0.57;;
74974;SDS011;64061;50.836;19.138;2022-11-18T01:54:36;6.13;;;0.80;;
74974;SDS011;64061;50.836;19.138;2022-11-18T01:57:48;1.40;;;0.90;;
74974;SDS011;64061;50.836;19.138;2022-11-18T02:00:55;0.95;;;0.40;;
74974;SDS011;64061;50.836;19.138;2022-11-18T02:04:00;1.23;;;0.43;;
74974;SDS011;64061;50.836;19.138;2022-11-18T02:07:04;2.55;;;0.73;;
74974;SDS011;64061;50.836;19.138;2022-11-18T02:10:17;1.50;;;0.80;;
74974;SDS011;64061;50.836;19.138;2022-11-18T02:13:28;0.90;;;0.57;;
74974;SDS011;64061;50.836;19.138;2022-11-18T02:16:35;2.25;;;0.70;;
74974;SDS011;64061;50.836;19.138;2022-11-18T02:20:08;1.33;;;0.52;;
74974;SDS011;64061;50.836;19.138;2022-11-18T02:31:14;0.93;;;0.45;;
74974;SDS011;64061;50.836;19.138;2022-11-18T02:34:37;2.30;;;1.02;;
74974;SDS011;64061;50.836;19.138;2022-11-18T02:37:56;1.00;;;0.63;;
74974;SDS011;64061;50.836;19.138;2022-11-18T02:41:07;1.75;;;0.88;;
74974;SDS011;64061;50.836;19.138;2022-11-18T02:44:17;0.80;;;0.33;;
74974;SDS011;64061;50.836;19.138;2022-11-18T02:47:28;1.67;;;0.80;;
74974;SDS011;64061;50.836;19.138;2022-11-18T02:50:35;1.50;;;0.80;;
74974;SDS011;64061;50.836;19.138;2022-11-18T02:53:43;1.40;;;0.65;;
74974;SDS011;64061;50.836;19.138;2022-11-18T02:56:50;1.25;;;0.50;;
74974;SDS011;64061;50.836;19.138;2022-11-18T02:59:56;1.30;;;0.40;;
74974;SDS011;64061;50.836;19.138;2022-11-18T03:03:15;1.77;;;0.93;;
74974;SDS011;64061;50.836;19.138;2022-11-18T03:06:29;4.43;;;0.80;;
74974;SDS011;64061;50.836;19.138;2022-11-18T03:09:37;1.48;;;0.68;;
74974;SDS011;64061;50.836;19.138;2022-11-18T03:12:47;0.98;;;0.60;;
74974;SDS011;64061;50.836;19.138;2022-11-18T03:16:05;1.70;;;0.70;;
74974;SDS011;64061;50.836;19.138;2022-11-18T03:19:19;1.85;;;0.82;;
74974;SDS011;64061;50.836;19.138;2022-11-18T03:22:37;2.03;;;0.77;;
74974;SDS011;64061;50.836;19.138;2022-11-18T03:25:48;0.98;;;0.47;;
74974;SDS011;64061;50.836;19.138;2022-11-18T03:28:58;1.35;;;0.70;;
74974;SDS011;64061;50.836;19.138;2022-11-18T03:32:09;1.13;;;0.50;;
74974;SDS011;64061;50.836;19.138;2022-11-18T03:35:22;1.10;;;0.50;;
74974;SDS011;64061;50.836;19.138;2022-11-18T03:38:32;1.40;;;0.80;;
74974;SDS011;64061;50.836;19.138;2022-11-18T03:41:42;1.65;;;0.68;;
74974;SDS011;64061;50.836;19.138;2022-11-18T03:44:54;1.45;;;0.50;;
74974;SDS011;64061;50.836;19.138;2022-11-18T03:48:08;2.27;;;0.73;;
74974;SDS011;64061;50.836;19.138;2022-11-18T03:51:19;1.38;;;0.57;;
74974;SDS011;64061;50.836;19.138;2022-11-18T03:54:30;1.17;;;0.50;;
74974;SDS011;64061;50.836;19.138;2022-11-18T03:57:41;2.42;;;0.60;;
74974;SDS011;64061;50.836;19.138;2022-11-18T04:00:53;1.67;;;0.50;;
74974;SDS011;64061;50.836;19.138;2022-11-18T04:04:06;1.47;;;0.67;;
74974;SDS011;64061;50.836;19.138;2022-11-18T04:07:15;1.95;;;0.77;;
74974;SDS011;64061;50.836;19.138;2022-11-18T04:10:29;1.30;;;0.60;;
74974;SDS011;64061;50.836;19.138;2022-11-18T04:13:37;2.22;;;1.10;;
74974;SDS011;64061;50.836;19.138;2022-11-18T04:16:42;1.33;;;0.60;;
74974;SDS011;64061;50.836;19.138;2022-11-18T04:19:47;1.20;;;0.73;;
74974;SDS011;64061;50.836;19.138;2022-11-18T04:22:52;1.08;;;0.68;;
74974;SDS011;64061;50.836;19.138;2022-11-18T04:25:56;1.75;;;0.90;;
74974;SDS011;64061;50.836;19.138;2022-11-18T04:28:59;2.10;;;1.20;;
74974;SDS011;64061;50.836;19.138;2022-11-18T04:32:03;1.38;;;0.52;;
74974;SDS011;64061;50.836;19.138;2022-11-18T04:35:07;1.33;;;0.50;;
74974;SDS011;64061;50.836;19.138;2022-11-18T04:38:12;1.23;;;0.82;;
74974;SDS011;64061;50.836;19.138;2022-11-18T04:41:22;1.20;;;0.85;;
74974;SDS011;64061;50.836;19.138;2022-11-18T04:44:46;1.17;;;0.40;;
74974;SDS011;64061;50.836;19.138;2022-11-18T04:47:50;2.50;;;1.08;;
74974;SDS011;64061;50.836;19.138;2022-11-18T04:50:57;5.27;;;1.37;;
74974;SDS011;64061;50.836;19.138;2022-11-18T04:54:06;1.98;;;0.90;;
74974;SDS011;64061;50.836;19.138;2022-11-18T04:57:10;2.08;;;0.80;;
74974;SDS011;64061;50.836;19.138;2022-11-18T05:00:15;3.08;;;1.38;;
74974;SDS011;64061;50.836;19.138;2022-11-18T05:03:19;2.20;;;1.00;;
74974;SDS011;64061;50.836;19.138;2022-11-18T05:06:23;1.40;;;0.83;;
74974;SDS011;64061;50.836;19.138;2022-11-18T05:09:28;1.55;;;0.95;;
74974;SDS011;64061;50.836;19.138;2022-11-18T05:12:33;1.63;;;0.80;;
74974;SDS011;64061;50.836;19.138;2022-11-18T05:15:50;1.85;;;0.65;;
74974;SDS011;64061;50.836;19.138;2022-11-18T05:18:54;2.97;;;0.80;;
74974;SDS011;64061;50.836;19.138;2022-11-18T05:21:57;2.25;;;0.98;;
74974;SDS011;64061;50.836;19.138;2022-11-18T05:25:03;1.30;;;0.73;;
74974;SDS011;64061;50.836;19.138;2022-11-18T05:28:07;2.35;;;0.80;;
74974;SDS011;64061;50.836;19.138;2022-11-18T05:31:12;1.98;;;0.80;;
74974;SDS011;64061;50.836;19.138;2022-11-18T05:34:17;2.63;;;1.10;;
74974;SDS011;64061;50.836;19.138;2022-11-18T05:37:21;2.45;;;1.42;;
74974;SDS011;64061;50.836;19.138;2022-11-18T05:40:26;1.52;;;0.57;;
74974;SDS011;64061;50.836;19.138;2022-11-18T05:43:30;3.10;;;0.93;;
74974;SDS011;64061;50.836;19.138;2022-11-18T05:46:34;1.92;;;0.93;;
74974;SDS011;64061;50.836;19.138;2022-11-18T05:49:37;1.43;;;0.70;;
74974;SDS011;64061;50.836;19.138;2022-11-18T05:52:41;2.40;;;1.80;;
74974;SDS011;64061;50.836;19.138;2022-11-18T05:55:46;1.77;;;0.82;;
74974;SDS011;64061;50.836;19.138;2022-11-18T05:58:58;2.03;;;0.68;;
74974;SDS011;64061;50.836;19.138;2022-11-18T06:02:02;2.42;;;1.17;;
74974;SDS011;64061;50.836;19.138;2022-11-18T06:05:12;1.73;;;0.97;;
74974;SDS011;64061;50.836;19.138;2022-11-18T06:08:19;1.52;;;0.75;;
74974;SDS011;64061;50.836;19.138;2022-11-18T06:11:27;1.55;;;0.80;;
74974;SDS011;64061;50.836;19.138;2022-11-18T06:14:36;1.80;;;0.82;;
74974;SDS011;64061;50.836;19.138;2022-11-18T06:17:45;2.60;;;0.93;;
74974;SDS011;64061;50.836;19.138;2022-11-18T06:20:55;2.20;;;1.03;;
74974;SDS011;64061;50.836;19.138;2022-11-18T06:24:05;1.67;;;0.82;;
74974;SDS011;64061;50.836;19.138;2022-11-18T06:27:12;3.80;;;1.20;;
74974;SDS011;64061;50.836;19.138;2022-11-18T06:30:17;1.65;;;0.70;;
74974;SDS011;64061;50.836;19.138;2022-11-18T06:33:21;2.13;;;1.10;;
74974;SDS011;64061;50.836;19.138;2022-11-18T06:36:25;2.63;;;1.30;;
74974;SDS011;64061;50.836;19.138;2022-11-18T06:39:28;2.08;;;1.40;;
74974;SDS011;64061;50.836;19.138;2022-11-18T06:42:33;1.30;;;0.93;;
74974;SDS011;64061;50.836;19.138;2022-11-18T06:45:56;3.13;;;1.23;;
74974;SDS011;64061;50.836;19.138;2022-11-18T06:49:18;2.33;;;1.00;;
74974;SDS011;64061;50.836;19.138;2022-11-18T06:52:22;2.87;;;1.00;;
74974;SDS011;64061;50.836;19.138;2022-11-18T06:55:26;1.83;;;1.00;;
74974;SDS011;64061;50.836;19.138;2022-11-18T06:58:31;1.75;;;0.68;;
74974;SDS011;64061;50.836;19.138;2022-11-18T07:01:36;2.40;;;1.00;;
74974;SDS011;64061;50.836;19.138;2022-11-18T07:04:41;1.92;;;1.05;;
74974;SDS011;64061;50.836;19.138;2022-11-18T07:07:45;3.67;;;1.30;;
74974;SDS011;64061;50.836;19.138;2022-11-18T07:10:50;1.50;;;0.90;;
74974;SDS011;64061;50.836;19.138;2022-11-18T07:13:55;1.58;;;0.95;;
74974;SDS011;64061;50.836;19.138;2022-11-18T07:16:59;2.65;;;1.15;;
74974;SDS011;64061;50.836;19.138;2022-11-18T07:20:02;2.40;;;1.35;;
74974;SDS011;64061;50.836;19.138;2022-11-18T07:23:07;1.63;;;0.80;;
74974;SDS011;64061;50.836;19.138;2022-11-18T07:26:10;1.92;;;0.80;;
74974;SDS011;64061;50.836;19.138;2022-11-18T07:29:16;2.35;;;1.08;;
74974;SDS011;64061;50.836;19.138;2022-11-18T07:32:20;2.75;;;1.10;;
74974;SDS011;64061;50.836;19.138;2022-11-18T07:35:23;2.63;;;1.13;;
74974;SDS011;64061;50.836;19.138;2022-11-18T07:38:26;3.00;;;0.90;;
74974;SDS011;64061;50.836;19.138;2022-11-18T07:41:32;3.25;;;1.42;;
74974;SDS011;64061;50.836;19.138;2022-11-18T07:44:37;1.35;;;0.68;;
74974;SDS011;64061;50.836;19.138;2022-11-18T07:47:40;4.25;;;1.02;;
74974;SDS011;64061;50.836;19.138;2022-11-18T07:50:44;1.95;;;0.77;;
74974;SDS011;64061;50.836;19.138;2022-11-18T07:53:48;1.40;;;0.87;;
74974;SDS011;64061;50.836;19.138;2022-11-18T07:56:52;1.27;;;0.70;;
74974;SDS011;64061;50.836;19.138;2022-11-18T07:59:57;1.95;;;1.10;;
74974;SDS011;64061;50.836;19.138;2022-11-18T08:03:00;1.15;;;0.77;;
74974;SDS011;64061;50.836;19.138;2022-11-18T08:06:05;1.58;;;0.80;;
74974;SDS011;64061;50.836;19.138;2022-11-18T08:09:10;2.27;;;0.93;;
74974;SDS011;64061;50.836;19.138;2022-11-18T08:12:14;2.05;;;0.90;;
74974;SDS011;64061;50.836;19.138;2022-11-18T08:15:19;3.88;;;1.33;;
74974;SDS011;64061;50.836;19.138;2022-11-18T08:18:22;1.75;;;1.00;;
74974;SDS011;64061;50.836;19.138;2022-11-18T08:21:26;3.05;;;1.35;;
74974;SDS011;64061;50.836;19.138;2022-11-18T08:24:30;2.17;;;0.80;;
74974;SDS011;64061;50.836;19.138;2022-11-18T08:27:34;4.80;;;1.02;;
74974;SDS011;64061;50.836;19.138;2022-11-18T08:30:39;1.30;;;0.80;;
74974;SDS011;64061;50.836;19.138;2022-11-18T08:33:43;5.63;;;0.90;;
74974;SDS011;64061;50.836;19.138;2022-11-18T08:36:47;1.38;;;0.55;;
74974;SDS011;64061;50.836;19.138;2022-11-18T08:39:51;2.37;;;0.80;;
74974;SDS011;64061;50.836;19.138;2022-11-18T08:42:54;1.77;;;1.00;;
74974;SDS011;64061;50.836;19.138;2022-11-18T08:45:59;1.90;;;0.95;;
74974;SDS011;64061;50.836;19.138;2022-11-18T08:49:03;1.70;;;0.82;;
74974;SDS011;64061;50.836;19.138;2022-11-18T08:52:06;2.70;;;0.85;;
74974;SDS011;64061;50.836;19.138;2022-11-18T08:55:10;1.20;;;0.60;;
74974;SDS011;64061;50.836;19.138;2022-11-18T08:58:14;2.00;;;0.75;;
74974;SDS011;64061;50.836;19.138;2022-11-18T09:01:19;2.45;;;1.02;;
74974;SDS011;64061;50.836;19.138;2022-11-18T09:04:22;3.53;;;0.98;;
74974;SDS011;64061;50.836;19.138;2022-11-18T09:07:26;2.35;;;0.68;;
74974;SDS011;64061;50.836;19.138;2022-11-18T09:10:29;1.83;;;0.80;;
74974;SDS011;64061;50.836;19.138;2022-11-18T09:13:35;5.55;;;0.70;;
74974;SDS011;64061;50.836;19.138;2022-11-18T09:17:00;1.75;;;0.93;;
74974;SDS011;64061;50.836;19.138;2022-11-18T09:20:04;1.63;;;0.77;;
74974;SDS011;64061;50.836;19.138;2022-11-18T09:23:08;1.80;;;0.70;;
74974;SDS011;64061;50.836;19.138;2022-11-18T09:26:13;1.13;;;0.60;;
74974;SDS011;64061;50.836;19.138;2022-11-18T09:29:19;2.10;;;0.80;;
74974;SDS011;64061;50.836;19.138;2022-11-18T09:32:28;3.60;;;1.10;;
74974;SDS011;64061;50.836;19.138;2022-11-18T09:35:31;1.10;;;0.70;;
74974;SDS011;64061;50.836;19.138;2022-11-18T09:38:35;3.08;;;1.05;;
74974;SDS011;64061;50.836;19.138;2022-11-18T09:41:43;1.43;;;0.60;;
74974;SDS011;64061;50.836;19.138;2022-11-18T09:48:26;2.15;;;0.70;;
74974;SDS011;64061;50.836;19.138;2022-11-18T09:51:45;1.48;;;0.80;;
74974;SDS011;64061;50.836;19.138;2022-11-18T09:54:52;1.58;;;0.75;;
74974;SDS011;64061;50.836;19.138;2022-11-18T09:57:56;1.83;;;0.80;;
74974;SDS011;64061;50.836;19.138;2022-11-18T10:01:02;4.47;;;0.57;;
74974;SDS011;64061;50.836;19.138;2022-11-18T10:04:16;2.25;;;0.90;;
74974;SDS011;64061;50.836;19.138;2022-11-18T10:07:25;2.22;;;0.77;;
74974;SDS011;64061;50.836;19.138;2022-11-18T10:10:52;6.95;;;1.00;;
74974;SDS011;64061;50.836;19.138;2022-11-18T10:14:09;1.53;;;0.57;;
74974;SDS011;64061;50.836;19.138;2022-11-18T10:17:34;1.15;;;0.65;;
74974;SDS011;64061;50.836;19.138;2022-11-18T10:20:54;1.33;;;0.65;;
74974;SDS011;64061;50.836;19.138;2022-11-18T10:24:08;1.70;;;1.15;;
74974;SDS011;64061;50.836;19.138;2022-11-18T10:27:25;2.42;;;1.13;;
74974;SDS011;64061;50.836;19.138;2022-11-18T10:30:37;2.20;;;0.77;;
74974;SDS011;64061;50.836;19.138;2022-11-18T10:33:40;1.50;;;0.95;;
74974;SDS011;64061;50.836;19.138;2022-11-18T10:36:50;2.65;;;1.33;;
74974;SDS011;64061;50.836;19.138;2022-11-18T10:40:03;1.27;;;0.60;;
74974;SDS011;64061;50.836;19.138;2022-11-18T10:43:09;4.10;;;1.73;;
74974;SDS011;64061;50.836;19.138;2022-11-18T10:46:18;2.23;;;1.10;;
74974;SDS011;64061;50.836;19.138;2022-11-18T10:49:27;2.72;;;0.80;;
74974;SDS011;64061;50.836;19.138;2022-11-18T10:52:50;1.98;;;1.15;;
74974;SDS011;64061;50.836;19.138;2022-11-18T10:55:56;2.20;;;0.93;;
74974;SDS011;64061;50.836;19.138;2022-11-18T10:59:01;2.92;;;1.50;;
74974;SDS011;64061;50.836;19.138;2022-11-18T11:02:11;6.00;;;1.80;;
74974;SDS011;64061;50.836;19.138;2022-11-18T11:05:21;4.80;;;1.80;;
74974;SDS011;64061;50.836;19.138;2022-11-18T11:08:29;1.73;;;0.88;;
74974;SDS011;64061;50.836;19.138;2022-11-18T11:11:39;4.15;;;2.22;;
74974;SDS011;64061;50.836;19.138;2022-11-18T11:14:57;2.35;;;1.40;;
74974;SDS011;64061;50.836;19.138;2022-11-18T11:18:09;4.27;;;2.43;;
74974;SDS011;64061;50.836;19.138;2022-11-18T11:21:39;8.63;;;2.10;;
74974;SDS011;64061;50.836;19.138;2022-11-18T11:24:45;6.43;;;2.92;;
74974;SDS011;64061;50.836;19.138;2022-11-18T11:27:51;8.85;;;2.45;;
74974;SDS011;64061;50.836;19.138;2022-11-18T11:31:19;6.25;;;2.28;;
74974;SDS011;64061;50.836;19.138;2022-11-18T11:34:33;7.53;;;2.40;;
74974;SDS011;64061;50.836;19.138;2022-11-18T11:37:49;5.53;;;2.50;;
74974;SDS011;64061;50.836;19.138;2022-11-18T11:41:01;7.60;;;2.83;;
74974;SDS011;64061;50.836;19.138;2022-11-18T11:44:30;5.80;;;2.50;;
74974;SDS011;64061;50.836;19.138;2022-11-18T11:48:03;9.00;;;3.30;;
74974;SDS011;64061;50.836;19.138;2022-11-18T11:51:30;8.93;;;2.90;;
74974;SDS011;64061;50.836;19.138;2022-11-18T11:54:43;8.85;;;3.90;;
74974;SDS011;64061;50.836;19.138;2022-11-18T11:58:06;8.90;;;2.75;;
74974;SDS011;64061;50.836;19.138;2022-11-18T12:01:26;6.50;;;3.47;;
74974;SDS011;64061;50.836;19.138;2022-11-18T12:04:41;6.93;;;2.70;;
74974;SDS011;64061;50.836;19.138;2022-11-18T12:07:50;8.83;;;2.97;;
74974;SDS011;64061;50.836;19.138;2022-11-18T12:11:02;6.22;;;2.35;;
74974;SDS011;64061;50.836;19.138;2022-11-18T12:14:19;6.88;;;2.33;;
74974;SDS011;64061;50.836;19.138;2022-11-18T12:17:42;6.30;;;2.88;;
74974;SDS011;64061;50.836;19.138;2022-11-18T12:20:56;6.38;;;2.85;;
74974;SDS011;64061;50.836;19.138;2022-11-18T12:27:56;5.00;;;2.33;;
74974;SDS011;64061;50.836;19.138;2022-11-18T12:34:38;7.55;;;2.25;;
74974;SDS011;64061;50.836;19.138;2022-11-18T12:37:55;5.43;;;2.28;;
74974;SDS011;64061;50.836;19.138;2022-11-18T12:41:15;4.77;;;1.80;;
74974;SDS011;64061;50.836;19.138;2022-11-18T12:48:54;6.43;;;1.95;;
74974;SDS011;64061;50.836;19.138;2022-11-18T12:51:57;5.18;;;1.98;;
74974;SDS011;64061;50.836;19.138;2022-11-18T12:55:03;5.15;;;2.35;;
74974;SDS011;64061;50.836;19.138;2022-11-18T12:58:23;3.70;;;2.00;;
74974;SDS011;64061;50.836;19.138;2022-11-18T13:01:29;13.32;;;5.75;;
74974;SDS011;64061;50.836;19.138;2022-11-18T13:04:37;7.45;;;4.15;;
74974;SDS011;64061;50.836;19.138;2022-11-18T13:07:49;11.23;;;5.55;;
74974;SDS011;64061;50.836;19.138;2022-11-18T13:11:15;10.75;;;4.97;;
74974;SDS011;64061;50.836;19.138;2022-11-18T13:14:39;8.23;;;5.30;;
74974;SDS011;64061;50.836;19.138;2022-11-18T13:18:07;9.02;;;5.53;;
74974;SDS011;64061;50.836;19.138;2022-11-18T13:21:23;16.23;;;6.10;;
74974;SDS011;64061;50.836;19.138;2022-11-18T13:24:47;11.50;;;5.43;;
74974;SDS011;64061;50.836;19.138;2022-11-18T13:27:55;14.35;;;6.93;;
74974;SDS011;64061;50.836;19.138;2022-11-18T13:31:14;10.52;;;5.47;;
74974;SDS011;64061;50.836;19.138;2022-11-18T13:34:28;9.63;;;5.68;;
74974;SDS011;64061;50.836;19.138;2022-11-18T13:37:35;10.95;;;6.80;;
74974;SDS011;64061;50.836;19.138;2022-11-18T13:40:51;14.13;;;5.90;;
74974;SDS011;64061;50.836;19.138;2022-11-18T13:44:09;7.25;;;4.40;;
74974;SDS011;64061;50.836;19.138;2022-11-18T13:47:22;5.40;;;3.60;;
74974;SDS011;64061;50.836;19.138;2022-11-18T13:50:37;7.72;;;4.57;;
74974;SDS011;64061;50.836;19.138;2022-11-18T13:53:53;7.93;;;4.30;;
74974;SDS011;64061;50.836;19.138;2022-11-18T13:56:57;6.05;;;3.80;;
74974;SDS011;64061;50.836;19.138;2022-11-18T14:00:02;7.35;;;2.97;;
74974;SDS011;64061;50.836;19.138;2022-11-18T14:03:14;6.07;;;2.97;;
74974;SDS011;64061;50.836;19.138;2022-11-18T14:06:29;3.65;;;2.50;;
74974;SDS011;64061;50.836;19.138;2022-11-18T14:09:35;8.73;;;3.20;;
74974;SDS011;64061;50.836;19.138;2022-11-18T14:12:39;7.82;;;3.22;;
74974;SDS011;64061;50.836;19.138;2022-11-18T14:15:43;7.53;;;3.15;;
74974;SDS011;64061;50.836;19.138;2022-11-18T14:18:47;5.85;;;2.20;;
74974;SDS011;64061;50.836;19.138;2022-11-18T14:21:53;9.40;;;3.05;;
74974;SDS011;64061;50.836;19.138;2022-11-18T14:25:16;5.80;;;2.63;;
74974;SDS011;64061;50.836;19.138;2022-11-18T14:28:25;5.03;;;2.28;;
74974;SDS011;64061;50.836;19.138;2022-11-18T14:31:31;5.28;;;2.33;;
74974;SDS011;64061;50.836;19.138;2022-11-18T14:34:34;5.72;;;2.30;;
74974;SDS011;64061;50.836;19.138;2022-11-18T14:37:38;4.68;;;2.20;;
74974;SDS011;64061;50.836;19.138;2022-11-18T14:40:43;4.20;;;2.33;;
74974;SDS011;64061;50.836;19.138;2022-11-18T14:43:47;4.50;;;1.80;;
74974;SDS011;64061;50.836;19.138;2022-11-18T14:46:51;5.00;;;2.47;;
74974;SDS011;64061;50.836;19.138;2022-11-18T14:49:59;3.45;;;1.73;;
74974;SDS011;64061;50.836;19.138;2022-11-18T14:53:03;4.38;;;2.08;;
74974;SDS011;64061;50.836;19.138;2022-11-18T14:56:10;2.97;;;1.83;;
74974;SDS011;64061;50.836;19.138;2022-11-18T14:59:23;5.28;;;2.50;;
74974;SDS011;64061;50.836;19.138;2022-11-18T15:02:27;4.43;;;2.30;;
74974;SDS011;64061;50.836;19.138;2022-11-18T15:05:30;2.40;;;1.50;;
74974;SDS011;64061;50.836;19.138;2022-11-18T15:08:34;5.03;;;1.98;;
74974;SDS011;64061;50.836;19.138;2022-11-18T15:11:39;2.73;;;1.57;;
74974;SDS011;64061;50.836;19.138;2022-11-18T15:14:43;3.13;;;1.52;;
74974;SDS011;64061;50.836;19.138;2022-11-18T15:17:46;3.40;;;1.60;;
74974;SDS011;64061;50.836;19.138;2022-11-18T15:20:55;2.63;;;1.55;;
74974;SDS011;64061;50.836;19.138;2022-11-18T15:23:58;4.53;;;2.22;;
74974;SDS011;64061;50.836;19.138;2022-11-18T15:27:04;3.67;;;1.80;;
74974;SDS011;64061;50.836;19.138;2022-11-18T15:30:09;3.08;;;1.40;;
74974;SDS011;64061;50.836;19.138;2022-11-18T15:33:16;4.25;;;1.50;;
74974;SDS011;64061;50.836;19.138;2022-11-18T15:36:20;3.15;;;1.60;;
74974;SDS011;64061;50.836;19.138;2022-11-18T15:39:26;3.70;;;1.20;;
74974;SDS011;64061;50.836;19.138;2022-11-18T15:42:31;4.03;;;1.73;;
74974;SDS011;64061;50.836;19.138;2022-11-18T15:45:54;3.45;;;1.67;;
74974;SDS011;64061;50.836;19.138;2022-11-18T15:48:58;2.25;;;1.10;;
74974;SDS011;64061;50.836;19.138;2022-11-18T15:52:03;2.78;;;1.30;;
74974;SDS011;64061;50.836;19.138;2022-11-18T15:55:09;5.32;;;1.35;;
74974;SDS011;64061;50.836;19.138;2022-11-18T15:58:14;2.63;;;1.27;;
74974;SDS011;64061;50.836;19.138;2022-11-18T16:01:17;4.07;;;1.38;;
74974;SDS011;64061;50.836;19.138;2022-11-18T16:04:22;2.28;;;1.20;;
74974;SDS011;64061;50.836;19.138;2022-11-18T16:07:25;2.63;;;1.50;;
74974;SDS011;64061;50.836;19.138;2022-11-18T16:10:28;2.22;;;1.13;;
74974;SDS011;64061;50.836;19.138;2022-11-18T16:13:51;2.27;;;1.20;;
74974;SDS011;64061;50.836;19.138;2022-11-18T16:16:54;3.80;;;1.30;;
74974;SDS011;64061;50.836;19.138;2022-11-18T16:19:58;2.30;;;1.35;;
74974;SDS011;64061;50.836;19.138;2022-11-18T16:23:02;4.10;;;2.08;;
74974;SDS011;64061;50.836;19.138;2022-11-18T16:26:05;11.98;;;4.28;;
74974;SDS011;64061;50.836;19.138;2022-11-18T16:29:11;23.97;;;6.10;;
74974;SDS011;64061;50.836;19.138;2022-11-18T16:32:18;22.85;;;7.10;;
74974;SDS011;64061;50.836;19.138;2022-11-18T16:35:22;28.40;;;5.82;;
74974;SDS011;64061;50.836;19.138;2022-11-18T16:38:25;26.40;;;6.20;;
74974;SDS011;64061;50.836;19.138;2022-11-18T16:41:29;21.40;;;7.00;;
74974;SDS011;64061;50.836;19.138;2022-11-18T16:44:34;24.03;;;7.13;;
74974;SDS011;64061;50.836;19.138;2022-11-18T16:47:38;16.50;;;5.88;;
74974;SDS011;64061;50.836;19.138;2022-11-18T16:50:42;24.10;;;7.07;;
74974;SDS011;64061;50.836;19.138;2022-11-18T16:53:49;17.55;;;5.70;;
74974;SDS011;64061;50.836;19.138;2022-11-18T16:56:54;20.38;;;6.10;;
74974;SDS011;64061;50.836;19.138;2022-11-18T17:00:02;15.37;;;5.93;;
74974;SDS011;64061;50.836;19.138;2022-11-18T17:03:08;16.02;;;4.82;;
74974;SDS011;64061;50.836;19.138;2022-11-18T17:06:11;13.57;;;4.47;;
74974;SDS011;64061;50.836;19.138;2022-11-18T17:09:15;11.95;;;5.10;;
74974;SDS011;64061;50.836;19.138;2022-11-18T17:12:21;18.55;;;5.80;;
74974;SDS011;64061;50.836;19.138;2022-11-18T17:15:26;13.83;;;4.23;;
74974;SDS011;64061;50.836;19.138;2022-11-18T17:18:30;12.32;;;4.28;;
74974;SDS011;64061;50.836;19.138;2022-11-18T17:21:33;13.73;;;5.70;;
74974;SDS011;64061;50.836;19.138;2022-11-18T17:24:37;13.93;;;5.15;;
74974;SDS011;64061;50.836;19.138;2022-11-18T17:27:40;15.45;;;4.18;;
74974;SDS011;64061;50.836;19.138;2022-11-18T17:30:46;12.77;;;3.70;;
74974;SDS011;64061;50.836;19.138;2022-11-18T17:33:51;12.05;;;4.18;;
74974;SDS011;64061;50.836;19.138;2022-11-18T17:36:57;10.57;;;4.15;;
74974;SDS011;64061;50.836;19.138;2022-11-18T17:40:07;11.65;;;4.10;;
74974;SDS011;64061;50.836;19.138;2022-11-18T17:43:14;9.07;;;3.90;;
74974;SDS011;64061;50.836;19.138;2022-11-18T17:46:18;13.20;;;4.30;;
74974;SDS011;64061;50.836;19.138;2022-11-18T17:49:24;17.20;;;4.85;;
74974;SDS011;64061;50.836;19.138;2022-11-18T17:52:27;8.43;;;3.92;;
74974;SDS011;64061;50.836;19.138;2022-11-18T17:55:31;14.68;;;3.63;;
74974;SDS011;64061;50.836;19.138;2022-11-18T17:58:34;9.90;;;3.78;;
74974;SDS011;64061;50.836;19.138;2022-11-18T18:01:40;11.03;;;3.60;;
74974;SDS011;64061;50.836;19.138;2022-11-18T18:04:43;10.82;;;3.63;;
74974;SDS011;64061;50.836;19.138;2022-11-18T18:07:47;9.68;;;3.67;;
74974;SDS011;64061;50.836;19.138;2022-11-18T18:10:51;8.32;;;3.40;;
74974;SDS011;64061;50.836;19.138;2022-11-18T18:13:55;12.75;;;4.68;;
74974;SDS011;64061;50.836;19.138;2022-11-18T18:17:18;8.97;;;3.43;;
74974;SDS011;64061;50.836;19.138;2022-11-18T18:20:22;8.48;;;3.08;;
74974;SDS011;64061;50.836;19.138;2022-11-18T18:23:25;9.20;;;2.72;;
74974;SDS011;64061;50.836;19.138;2022-11-18T18:26:29;8.43;;;2.90;;
74974;SDS011;64061;50.836;19.138;2022-11-18T18:29:33;9.65;;;3.30;;
74974;SDS011;64061;50.836;19.138;2022-11-18T18:32:38;6.93;;;3.00;;
74974;SDS011;64061;50.836;19.138;2022-11-18T18:35:41;10.98;;;3.40;;
74974;SDS011;64061;50.836;19.138;2022-11-18T18:38:46;6.88;;;2.33;;
74974;SDS011;64061;50.836;19.138;2022-11-18T18:41:50;6.75;;;2.13;;
74974;SDS011;64061;50.836;19.138;2022-11-18T18:44:53;6.80;;;2.97;;
74974;SDS011;64061;50.836;19.138;2022-11-18T18:48:16;5.60;;;3.37;;
74974;SDS011;64061;50.836;19.138;2022-11-18T18:51:20;7.95;;;3.30;;
74974;SDS011;64061;50.836;19.138;2022-11-18T18:54:23;7.55;;;2.20;;
74974;SDS011;64061;50.836;19.138;2022-11-18T18:57:27;6.28;;;2.72;;
74974;SDS011;64061;50.836;19.138;2022-11-18T19:00:31;5.22;;;2.38;;
74974;SDS011;64061;50.836;19.138;2022-11-18T19:03:37;6.70;;;2.07;;